首页
METAR-TAF:

METAR-TAF

机场 :

Charlotte County Airport

Punta Gorda, 佛罗里达州, 美国

纬度: 26-55-04N, 经度: 081-59-37W, 海拔: 7米

当前天气观测

该预报发布于57分钟前的21:53 UTC
风速8节,风向西
温度 28°C
湿度 66%
气压 1021 hPa
能見度: 16.1公里
少量云层高于4300英尺

METAR: KPGD 112153Z 28008KT 10SM FEW043 28/21 A3015 RMK AO2 SLP207 T02780211

时间: 17:50 (22:50 UTC)

预报

该预报发布于5小时和3分钟前的17:47 UTC
预报有效从11日的 18点(UTC)到 12日的 18点(UTC)
风速8节,风向西南
能見度: 10公里
散云层高于2000英尺
多云层高于5000英尺
从 11日的 2100点(UTC)
风速9节,风向北转西北
能見度: 10公里
散云层高于2000英尺
多云层高于5000英尺
从 12日的 0200点(UTC)
风速11节,风向东北
能見度: 10公里
多云层高于2000英尺
多云层高于4000英尺
从 12日的 1600点(UTC)
风速13节,风向东转东北
能見度: 10公里
多云层高于2000英尺
阴天层高于5000英尺

TAF: KPGD 111747Z 1118/1218 23008KT P6SM SCT020 BKN050 FM112100 34009KT P6SM SCT020 BKN050 FM120200 04011KT P6SM BKN020 BKN040 FM121600 07013KT P6SM BKN020 OVC050

超过4000个机场的气象观测和天气预报(METAR&TAF报告)。

可查询的气象台以黄色和红色小点在地图上表示。

将鼠标移到小点上方,可查看气象台名称。

然后点击查看天气观测和预报。

如需切换地图:点击带黑十字的绿色按钮放大地图;点击带横线的绿色按钮缩小地图;或者点击绿色箭头查看邻近地区的地图。


METAR-TAF: